Aviation Digital Data Service (ADDS)

Output produced by METARs form (0621 UTC 22 October 2018)
found at http://www.aviationweather.gov/metar/data/
 
METAR text: RJOW 220600Z 32004KT 290V010 9999 FEW025 BKN/// 20/12 Q1019
Conditions at: RJOW (IWAMI , JP) observed 0600 UTC 22 October 2018
Temperature: 20.0°C (68°F)
Dewpoint: 12.0°C (54°F) [RH = 60%]
Pressure (altimeter): 30.09 inches Hg (1019.0 mb)
Winds: from the NW (320 degrees) at 5 MPH (4 knots; 2.1 m/s)
Visibility: 6 or more miles (10+ km)
Ceiling: at least 12,000 feet AGL
Clouds: few clouds at 2500 feet AGL
Weather: no significant weather observed at this time